sensor_id;sensor_type;location;lat;lon;timestamp;P1;durP1;ratioP1;P2;durP2;ratioP2
12511;SDS011;6321;53.798;10.382;2023-05-29T00:01:14;6.83;;;2.23;;
12511;SDS011;6321;53.798;10.382;2023-05-29T00:03:43;10.30;;;2.33;;
12511;SDS011;6321;53.798;10.382;2023-05-29T00:06:09;8.00;;;3.10;;
12511;SDS011;6321;53.798;10.382;2023-05-29T00:08:35;6.80;;;2.70;;
12511;SDS011;6321;53.798;10.382;2023-05-29T00:11:01;9.77;;;2.97;;
12511;SDS011;6321;53.798;10.382;2023-05-29T00:13:27;6.33;;;3.30;;
12511;SDS011;6321;53.798;10.382;2023-05-29T00:15:53;6.80;;;2.40;;
12511;SDS011;6321;53.798;10.382;2023-05-29T00:18:19;9.03;;;3.07;;
12511;SDS011;6321;53.798;10.382;2023-05-29T00:20:45;6.83;;;2.83;;
12511;SDS011;6321;53.798;10.382;2023-05-29T00:23:11;6.27;;;2.50;;
12511;SDS011;6321;53.798;10.382;2023-05-29T00:25:37;8.40;;;3.00;;
12511;SDS011;6321;53.798;10.382;2023-05-29T00:28:05;8.60;;;2.97;;
12511;SDS011;6321;53.798;10.382;2023-05-29T00:30:31;13.63;;;3.00;;
12511;SDS011;6321;53.798;10.382;2023-05-29T00:32:57;11.43;;;2.90;;
12511;SDS011;6321;53.798;10.382;2023-05-29T00:35:23;10.47;;;2.80;;
12511;SDS011;6321;53.798;10.382;2023-05-29T00:37:49;11.00;;;3.07;;
12511;SDS011;6321;53.798;10.382;2023-05-29T00:40:15;7.30;;;2.77;;
12511;SDS011;6321;53.798;10.382;2023-05-29T00:42:41;13.37;;;3.00;;
12511;SDS011;6321;53.798;10.382;2023-05-29T00:45:07;11.67;;;2.87;;
12511;SDS011;6321;53.798;10.382;2023-05-29T00:47:33;13.73;;;3.57;;
12511;SDS011;6321;53.798;10.382;2023-05-29T00:50:00;9.03;;;2.87;;
12511;SDS011;6321;53.798;10.382;2023-05-29T00:52:26;6.90;;;3.23;;
12511;SDS011;6321;53.798;10.382;2023-05-29T00:54:53;16.63;;;4.27;;
12511;SDS011;6321;53.798;10.382;2023-05-29T00:57:19;13.97;;;3.07;;
12511;SDS011;6321;53.798;10.382;2023-05-29T00:59:45;12.90;;;2.80;;
12511;SDS011;6321;53.798;10.382;2023-05-29T01:02:12;11.90;;;3.30;;
12511;SDS011;6321;53.798;10.382;2023-05-29T01:04:41;13.80;;;2.97;;
12511;SDS011;6321;53.798;10.382;2023-05-29T01:07:07;12.33;;;3.27;;
12511;SDS011;6321;53.798;10.382;2023-05-29T01:09:34;10.37;;;2.90;;
12511;SDS011;6321;53.798;10.382;2023-05-29T01:17:25;12.93;;;2.93;;
12511;SDS011;6321;53.798;10.382;2023-05-29T01:25:11;9.93;;;3.03;;
12511;SDS011;6321;53.798;10.382;2023-05-29T01:27:42;9.73;;;2.77;;
12511;SDS011;6321;53.798;10.382;2023-05-29T01:30:12;9.97;;;3.43;;
12511;SDS011;6321;53.798;10.382;2023-05-29T01:32:38;8.03;;;2.90;;
12511;SDS011;6321;53.798;10.382;2023-05-29T01:35:04;15.30;;;3.50;;
12511;SDS011;6321;53.798;10.382;2023-05-29T01:37:30;9.10;;;2.77;;
12511;SDS011;6321;53.798;10.382;2023-05-29T01:39:56;10.17;;;3.10;;
12511;SDS011;6321;53.798;10.382;2023-05-29T01:42:23;11.90;;;3.60;;
12511;SDS011;6321;53.798;10.382;2023-05-29T01:44:50;10.70;;;3.30;;
12511;SDS011;6321;53.798;10.382;2023-05-29T01:47:16;11.30;;;3.37;;
12511;SDS011;6321;53.798;10.382;2023-05-29T01:49:42;13.43;;;3.40;;
12511;SDS011;6321;53.798;10.382;2023-05-29T01:52:09;17.43;;;3.77;;
12511;SDS011;6321;53.798;10.382;2023-05-29T01:54:35;11.93;;;3.33;;
12511;SDS011;6321;53.798;10.382;2023-05-29T01:57:01;12.47;;;3.10;;
12511;SDS011;6321;53.798;10.382;2023-05-29T01:59:31;10.60;;;3.67;;
12511;SDS011;6321;53.798;10.382;2023-05-29T02:01:57;7.23;;;2.63;;
12511;SDS011;6321;53.798;10.382;2023-05-29T02:04:23;10.13;;;3.00;;
12511;SDS011;6321;53.798;10.382;2023-05-29T02:06:49;10.30;;;3.67;;
12511;SDS011;6321;53.798;10.382;2023-05-29T02:09:17;9.67;;;2.80;;
12511;SDS011;6321;53.798;10.382;2023-05-29T02:11:44;10.27;;;3.73;;
12511;SDS011;6321;53.798;10.382;2023-05-29T02:14:10;12.47;;;3.90;;
12511;SDS011;6321;53.798;10.382;2023-05-29T02:16:36;12.43;;;2.63;;
12511;SDS011;6321;53.798;10.382;2023-05-29T02:19:05;17.87;;;4.37;;
12511;SDS011;6321;53.798;10.382;2023-05-29T02:21:32;11.20;;;3.57;;
12511;SDS011;6321;53.798;10.382;2023-05-29T02:23:58;11.10;;;3.97;;
12511;SDS011;6321;53.798;10.382;2023-05-29T02:26:24;8.93;;;3.23;;
12511;SDS011;6321;53.798;10.382;2023-05-29T02:28:50;12.33;;;2.83;;
12511;SDS011;6321;53.798;10.382;2023-05-29T02:31:16;15.47;;;3.30;;
12511;SDS011;6321;53.798;10.382;2023-05-29T02:33:42;12.20;;;3.77;;
12511;SDS011;6321;53.798;10.382;2023-05-29T02:36:08;14.10;;;3.63;;
12511;SDS011;6321;53.798;10.382;2023-05-29T02:38:35;13.50;;;3.30;;
12511;SDS011;6321;53.798;10.382;2023-05-29T02:41:01;12.97;;;3.47;;
12511;SDS011;6321;53.798;10.382;2023-05-29T02:43:27;12.67;;;2.80;;
12511;SDS011;6321;53.798;10.382;2023-05-29T02:45:53;10.37;;;3.03;;
12511;SDS011;6321;53.798;10.382;2023-05-29T02:48:19;9.43;;;3.47;;
12511;SDS011;6321;53.798;10.382;2023-05-29T02:50:45;11.13;;;3.33;;
12511;SDS011;6321;53.798;10.382;2023-05-29T02:53:11;15.63;;;3.67;;
12511;SDS011;6321;53.798;10.382;2023-05-29T02:55:37;15.17;;;3.93;;
12511;SDS011;6321;53.798;10.382;2023-05-29T02:58:03;12.60;;;3.07;;
12511;SDS011;6321;53.798;10.382;2023-05-29T03:00:29;13.17;;;2.63;;
12511;SDS011;6321;53.798;10.382;2023-05-29T03:02:55;11.47;;;3.30;;
12511;SDS011;6321;53.798;10.382;2023-05-29T03:05:21;17.13;;;3.90;;
12511;SDS011;6321;53.798;10.382;2023-05-29T03:07:47;10.93;;;3.57;;
12511;SDS011;6321;53.798;10.382;2023-05-29T03:10:13;14.60;;;3.40;;
12511;SDS011;6321;53.798;10.382;2023-05-29T03:12:42;13.70;;;2.77;;
12511;SDS011;6321;53.798;10.382;2023-05-29T03:15:09;10.10;;;3.10;;
12511;SDS011;6321;53.798;10.382;2023-05-29T03:17:35;13.20;;;4.13;;
12511;SDS011;6321;53.798;10.382;2023-05-29T03:20:03;11.43;;;3.27;;
12511;SDS011;6321;53.798;10.382;2023-05-29T03:22:31;8.43;;;3.10;;
12511;SDS011;6321;53.798;10.382;2023-05-29T03:24:57;12.20;;;3.50;;
12511;SDS011;6321;53.798;10.382;2023-05-29T03:27:23;10.20;;;3.03;;
12511;SDS011;6321;53.798;10.382;2023-05-29T03:29:49;14.30;;;3.60;;
12511;SDS011;6321;53.798;10.382;2023-05-29T03:32:15;13.80;;;3.10;;
12511;SDS011;6321;53.798;10.382;2023-05-29T03:34:41;11.17;;;3.83;;
12511;SDS011;6321;53.798;10.382;2023-05-29T03:37:07;15.03;;;3.30;;
12511;SDS011;6321;53.798;10.382;2023-05-29T03:39:33;13.50;;;3.63;;
12511;SDS011;6321;53.798;10.382;2023-05-29T03:41:58;13.30;;;3.60;;
12511;SDS011;6321;53.798;10.382;2023-05-29T03:44:25;14.87;;;3.63;;
12511;SDS011;6321;53.798;10.382;2023-05-29T03:46:51;10.93;;;3.43;;
12511;SDS011;6321;53.798;10.382;2023-05-29T03:49:17;12.43;;;4.00;;
12511;SDS011;6321;53.798;10.382;2023-05-29T03:51:42;12.33;;;3.83;;
12511;SDS011;6321;53.798;10.382;2023-05-29T03:54:08;18.57;;;3.50;;
12511;SDS011;6321;53.798;10.382;2023-05-29T03:56:35;12.93;;;3.10;;
12511;SDS011;6321;53.798;10.382;2023-05-29T03:59:02;14.37;;;3.60;;
12511;SDS011;6321;53.798;10.382;2023-05-29T04:01:28;17.90;;;3.77;;
12511;SDS011;6321;53.798;10.382;2023-05-29T04:03:54;16.27;;;3.80;;
12511;SDS011;6321;53.798;10.382;2023-05-29T04:06:20;14.33;;;3.40;;
12511;SDS011;6321;53.798;10.382;2023-05-29T04:08:46;13.63;;;3.53;;
12511;SDS011;6321;53.798;10.382;2023-05-29T04:11:13;15.53;;;3.83;;
12511;SDS011;6321;53.798;10.382;2023-05-29T04:13:39;16.03;;;3.47;;
12511;SDS011;6321;53.798;10.382;2023-05-29T04:16:05;13.90;;;3.30;;
12511;SDS011;6321;53.798;10.382;2023-05-29T04:18:31;13.70;;;2.97;;
12511;SDS011;6321;53.798;10.382;2023-05-29T04:20:57;15.37;;;3.33;;
12511;SDS011;6321;53.798;10.382;2023-05-29T04:23:23;13.73;;;3.30;;
12511;SDS011;6321;53.798;10.382;2023-05-29T04:25:49;8.93;;;3.33;;
12511;SDS011;6321;53.798;10.382;2023-05-29T04:28:15;17.83;;;3.90;;
12511;SDS011;6321;53.798;10.382;2023-05-29T04:30:42;17.03;;;3.90;;
12511;SDS011;6321;53.798;10.382;2023-05-29T04:33:07;15.13;;;3.80;;
12511;SDS011;6321;53.798;10.382;2023-05-29T04:35:37;12.73;;;3.47;;
12511;SDS011;6321;53.798;10.382;2023-05-29T04:38:03;14.23;;;4.23;;
12511;SDS011;6321;53.798;10.382;2023-05-29T04:40:29;15.03;;;4.10;;
12511;SDS011;6321;53.798;10.382;2023-05-29T04:42:56;16.53;;;4.70;;
12511;SDS011;6321;53.798;10.382;2023-05-29T04:45:25;16.23;;;3.77;;
12511;SDS011;6321;53.798;10.382;2023-05-29T04:47:51;12.47;;;3.40;;
12511;SDS011;6321;53.798;10.382;2023-05-29T04:50:18;17.20;;;3.90;;
12511;SDS011;6321;53.798;10.382;2023-05-29T04:52:44;15.23;;;3.67;;
12511;SDS011;6321;53.798;10.382;2023-05-29T04:55:10;11.97;;;3.40;;
12511;SDS011;6321;53.798;10.382;2023-05-29T04:57:36;18.97;;;4.27;;
12511;SDS011;6321;53.798;10.382;2023-05-29T05:00:02;11.90;;;4.13;;
12511;SDS011;6321;53.798;10.382;2023-05-29T05:02:33;17.90;;;3.60;;
12511;SDS011;6321;53.798;10.382;2023-05-29T05:04:59;16.87;;;3.93;;
12511;SDS011;6321;53.798;10.382;2023-05-29T05:07:25;18.70;;;4.00;;
12511;SDS011;6321;53.798;10.382;2023-05-29T05:09:51;14.63;;;4.07;;
12511;SDS011;6321;53.798;10.382;2023-05-29T05:12:17;13.10;;;3.50;;
12511;SDS011;6321;53.798;10.382;2023-05-29T05:14:43;13.40;;;3.83;;
12511;SDS011;6321;53.798;10.382;2023-05-29T05:17:08;13.60;;;3.90;;
12511;SDS011;6321;53.798;10.382;2023-05-29T05:19:34;12.77;;;4.37;;
12511;SDS011;6321;53.798;10.382;2023-05-29T05:22:00;15.40;;;4.63;;
12511;SDS011;6321;53.798;10.382;2023-05-29T05:24:26;12.87;;;3.60;;
12511;SDS011;6321;53.798;10.382;2023-05-29T05:26:52;15.30;;;4.00;;
12511;SDS011;6321;53.798;10.382;2023-05-29T05:29:18;18.83;;;4.37;;
12511;SDS011;6321;53.798;10.382;2023-05-29T05:31:45;15.53;;;3.70;;
12511;SDS011;6321;53.798;10.382;2023-05-29T05:34:10;16.67;;;4.20;;
12511;SDS011;6321;53.798;10.382;2023-05-29T05:36:36;12.83;;;4.40;;
12511;SDS011;6321;53.798;10.382;2023-05-29T05:39:02;13.33;;;5.07;;
12511;SDS011;6321;53.798;10.382;2023-05-29T05:41:30;18.27;;;4.33;;
12511;SDS011;6321;53.798;10.382;2023-05-29T05:43:56;13.37;;;4.53;;
12511;SDS011;6321;53.798;10.382;2023-05-29T05:46:22;15.83;;;4.17;;
12511;SDS011;6321;53.798;10.382;2023-05-29T05:48:48;24.17;;;4.80;;
12511;SDS011;6321;53.798;10.382;2023-05-29T05:51:13;18.40;;;5.33;;
12511;SDS011;6321;53.798;10.382;2023-05-29T05:53:40;16.40;;;3.67;;
12511;SDS011;6321;53.798;10.382;2023-05-29T05:56:06;20.00;;;4.40;;
12511;SDS011;6321;53.798;10.382;2023-05-29T05:58:32;17.60;;;4.13;;
12511;SDS011;6321;53.798;10.382;2023-05-29T06:00:58;19.27;;;4.13;;
12511;SDS011;6321;53.798;10.382;2023-05-29T06:03:24;18.80;;;4.37;;
12511;SDS011;6321;53.798;10.382;2023-05-29T06:05:51;16.40;;;4.60;;
12511;SDS011;6321;53.798;10.382;2023-05-29T06:08:19;13.63;;;3.67;;
12511;SDS011;6321;53.798;10.382;2023-05-29T06:10:45;18.43;;;4.30;;
12511;SDS011;6321;53.798;10.382;2023-05-29T06:13:11;12.47;;;4.87;;
12511;SDS011;6321;53.798;10.382;2023-05-29T06:15:38;13.93;;;4.50;;
12511;SDS011;6321;53.798;10.382;2023-05-29T06:18:04;13.07;;;3.97;;
12511;SDS011;6321;53.798;10.382;2023-05-29T06:20:30;21.07;;;4.63;;
12511;SDS011;6321;53.798;10.382;2023-05-29T06:22:56;18.03;;;4.23;;
12511;SDS011;6321;53.798;10.382;2023-05-29T06:25:22;15.57;;;3.73;;
12511;SDS011;6321;53.798;10.382;2023-05-29T06:27:55;19.30;;;3.70;;
12511;SDS011;6321;53.798;10.382;2023-05-29T06:30:21;15.50;;;3.93;;
12511;SDS011;6321;53.798;10.382;2023-05-29T06:32:47;12.53;;;3.43;;
12511;SDS011;6321;53.798;10.382;2023-05-29T06:35:13;12.47;;;3.63;;
12511;SDS011;6321;53.798;10.382;2023-05-29T06:37:39;18.23;;;4.00;;
12511;SDS011;6321;53.798;10.382;2023-05-29T06:40:05;15.97;;;3.57;;
12511;SDS011;6321;53.798;10.382;2023-05-29T06:42:31;11.00;;;4.00;;
12511;SDS011;6321;53.798;10.382;2023-05-29T06:44:57;14.07;;;3.43;;
12511;SDS011;6321;53.798;10.382;2023-05-29T06:47:23;16.30;;;4.03;;
12511;SDS011;6321;53.798;10.382;2023-05-29T06:49:49;11.10;;;3.77;;
12511;SDS011;6321;53.798;10.382;2023-05-29T06:52:15;10.87;;;3.63;;
12511;SDS011;6321;53.798;10.382;2023-05-29T06:54:41;18.43;;;4.20;;
12511;SDS011;6321;53.798;10.382;2023-05-29T06:57:07;12.00;;;3.50;;
12511;SDS011;6321;53.798;10.382;2023-05-29T06:59:33;15.20;;;4.43;;
12511;SDS011;6321;53.798;10.382;2023-05-29T07:01:59;16.73;;;4.03;;
12511;SDS011;6321;53.798;10.382;2023-05-29T07:04:25;15.53;;;4.23;;
12511;SDS011;6321;53.798;10.382;2023-05-29T07:06:51;15.07;;;4.23;;
12511;SDS011;6321;53.798;10.382;2023-05-29T07:09:17;10.13;;;3.20;;
12511;SDS011;6321;53.798;10.382;2023-05-29T07:11:43;12.70;;;4.00;;
12511;SDS011;6321;53.798;10.382;2023-05-29T07:14:09;12.73;;;3.30;;
12511;SDS011;6321;53.798;10.382;2023-05-29T07:16:35;19.10;;;4.57;;
12511;SDS011;6321;53.798;10.382;2023-05-29T07:19:01;15.37;;;4.17;;
12511;SDS011;6321;53.798;10.382;2023-05-29T07:21:27;13.47;;;3.93;;
12511;SDS011;6321;53.798;10.382;2023-05-29T07:23:53;13.57;;;4.20;;
12511;SDS011;6321;53.798;10.382;2023-05-29T07:26:19;12.57;;;3.50;;
12511;SDS011;6321;53.798;10.382;2023-05-29T07:28:47;14.17;;;4.30;;
12511;SDS011;6321;53.798;10.382;2023-05-29T07:31:13;13.43;;;4.33;;
12511;SDS011;6321;53.798;10.382;2023-05-29T07:33:40;13.10;;;3.70;;
12511;SDS011;6321;53.798;10.382;2023-05-29T07:36:09;9.27;;;4.00;;
12511;SDS011;6321;53.798;10.382;2023-05-29T07:38:35;12.80;;;3.80;;
12511;SDS011;6321;53.798;10.382;2023-05-29T07:41:01;18.33;;;4.23;;
12511;SDS011;6321;53.798;10.382;2023-05-29T07:43:27;13.30;;;3.63;;
12511;SDS011;6321;53.798;10.382;2023-05-29T07:45:53;18.77;;;4.40;;
12511;SDS011;6321;53.798;10.382;2023-05-29T07:48:19;16.60;;;4.53;;
12511;SDS011;6321;53.798;10.382;2023-05-29T07:50:45;12.97;;;3.57;;
12511;SDS011;6321;53.798;10.382;2023-05-29T07:53:12;12.07;;;3.80;;
12511;SDS011;6321;53.798;10.382;2023-05-29T07:55:38;13.13;;;3.70;;
12511;SDS011;6321;53.798;10.382;2023-05-29T07:58:04;18.43;;;4.20;;
12511;SDS011;6321;53.798;10.382;2023-05-29T08:00:30;11.77;;;3.60;;
12511;SDS011;6321;53.798;10.382;2023-05-29T08:02:55;9.30;;;4.13;;
12511;SDS011;6321;53.798;10.382;2023-05-29T08:05:22;10.30;;;3.93;;
12511;SDS011;6321;53.798;10.382;2023-05-29T08:07:48;11.43;;;3.70;;
12511;SDS011;6321;53.798;10.382;2023-05-29T08:10:14;12.17;;;3.70;;
12511;SDS011;6321;53.798;10.382;2023-05-29T08:12:40;14.53;;;3.97;;
12511;SDS011;6321;53.798;10.382;2023-05-29T08:15:06;12.87;;;3.60;;
12511;SDS011;6321;53.798;10.382;2023-05-29T08:17:32;11.30;;;3.67;;
12511;SDS011;6321;53.798;10.382;2023-05-29T08:19:58;10.63;;;4.10;;
12511;SDS011;6321;53.798;10.382;2023-05-29T08:22:28;14.70;;;3.97;;
12511;SDS011;6321;53.798;10.382;2023-05-29T08:24:58;11.33;;;4.33;;
12511;SDS011;6321;53.798;10.382;2023-05-29T08:27:24;10.10;;;3.50;;
12511;SDS011;6321;53.798;10.382;2023-05-29T08:29:50;11.07;;;3.83;;
12511;SDS011;6321;53.798;10.382;2023-05-29T08:32:16;13.93;;;3.73;;
12511;SDS011;6321;53.798;10.382;2023-05-29T08:34:42;9.97;;;3.33;;
12511;SDS011;6321;53.798;10.382;2023-05-29T08:37:10;11.57;;;3.70;;
12511;SDS011;6321;53.798;10.382;2023-05-29T08:39:36;13.30;;;3.83;;
12511;SDS011;6321;53.798;10.382;2023-05-29T08:44:29;16.70;;;3.97;;
12511;SDS011;6321;53.798;10.382;2023-05-29T08:46:56;11.40;;;3.33;;
12511;SDS011;6321;53.798;10.382;2023-05-29T08:49:25;15.97;;;4.00;;
12511;SDS011;6321;53.798;10.382;2023-05-29T08:51:57;11.97;;;4.03;;
12511;SDS011;6321;53.798;10.382;2023-05-29T08:54:26;13.20;;;3.90;;
12511;SDS011;6321;53.798;10.382;2023-05-29T08:56:52;8.03;;;3.20;;
12511;SDS011;6321;53.798;10.382;2023-05-29T08:59:18;10.77;;;3.43;;
12511;SDS011;6321;53.798;10.382;2023-05-29T09:01:44;13.50;;;3.30;;
12511;SDS011;6321;53.798;10.382;2023-05-29T09:04:10;15.07;;;3.90;;
12511;SDS011;6321;53.798;10.382;2023-05-29T09:06:36;11.93;;;4.30;;
12511;SDS011;6321;53.798;10.382;2023-05-29T09:09:03;9.03;;;3.47;;
12511;SDS011;6321;53.798;10.382;2023-05-29T09:11:29;9.90;;;3.53;;
12511;SDS011;6321;53.798;10.382;2023-05-29T09:13:55;11.03;;;4.13;;
12511;SDS011;6321;53.798;10.382;2023-05-29T09:16:23;11.10;;;3.90;;
12511;SDS011;6321;53.798;10.382;2023-05-29T09:18:49;13.73;;;3.67;;
12511;SDS011;6321;53.798;10.382;2023-05-29T09:21:27;8.83;;;3.40;;
12511;SDS011;6321;53.798;10.382;2023-05-29T09:24:02;10.47;;;3.33;;
12511;SDS011;6321;53.798;10.382;2023-05-29T09:26:28;6.97;;;2.90;;
12511;SDS011;6321;53.798;10.382;2023-05-29T09:28:55;7.80;;;3.23;;
12511;SDS011;6321;53.798;10.382;2023-05-29T09:31:20;9.67;;;3.37;;
12511;SDS011;6321;53.798;10.382;2023-05-29T09:33:47;8.67;;;3.10;;
12511;SDS011;6321;53.798;10.382;2023-05-29T09:36:23;9.47;;;3.30;;
12511;SDS011;6321;53.798;10.382;2023-05-29T09:38:49;10.50;;;3.47;;
12511;SDS011;6321;53.798;10.382;2023-05-29T09:41:23;9.10;;;2.97;;
12511;SDS011;6321;53.798;10.382;2023-05-29T09:43:49;7.73;;;3.03;;
12511;SDS011;6321;53.798;10.382;2023-05-29T09:46:16;8.80;;;3.70;;
12511;SDS011;6321;53.798;10.382;2023-05-29T09:48:45;8.13;;;3.07;;
12511;SDS011;6321;53.798;10.382;2023-05-29T09:51:22;7.83;;;3.80;;
12511;SDS011;6321;53.798;10.382;2023-05-29T09:53:49;7.17;;;2.90;;
12511;SDS011;6321;53.798;10.382;2023-05-29T09:56:16;6.60;;;2.80;;
12511;SDS011;6321;53.798;10.382;2023-05-29T09:58:42;9.10;;;3.17;;
12511;SDS011;6321;53.798;10.382;2023-05-29T10:01:11;9.03;;;3.20;;
12511;SDS011;6321;53.798;10.382;2023-05-29T10:03:38;12.27;;;3.30;;
12511;SDS011;6321;53.798;10.382;2023-05-29T10:06:04;10.53;;;4.33;;
12511;SDS011;6321;53.798;10.382;2023-05-29T10:08:33;10.13;;;3.40;;
12511;SDS011;6321;53.798;10.382;2023-05-29T10:11:01;14.23;;;3.77;;
12511;SDS011;6321;53.798;10.382;2023-05-29T10:13:30;6.80;;;2.53;;
12511;SDS011;6321;53.798;10.382;2023-05-29T10:15:57;7.80;;;3.30;;
12511;SDS011;6321;53.798;10.382;2023-05-29T10:18:24;6.70;;;3.13;;
12511;SDS011;6321;53.798;10.382;2023-05-29T10:20:52;8.37;;;3.00;;
12511;SDS011;6321;53.798;10.382;2023-05-29T10:23:21;7.30;;;3.03;;
12511;SDS011;6321;53.798;10.382;2023-05-29T10:25:49;7.73;;;3.53;;
12511;SDS011;6321;53.798;10.382;2023-05-29T10:28:17;6.13;;;3.03;;
12511;SDS011;6321;53.798;10.382;2023-05-29T10:30:44;11.57;;;4.10;;
12511;SDS011;6321;53.798;10.382;2023-05-29T10:36:13;9.63;;;3.40;;
12511;SDS011;6321;53.798;10.382;2023-05-29T10:38:45;7.97;;;3.17;;
12511;SDS011;6321;53.798;10.382;2023-05-29T10:43:56;6.70;;;3.10;;
12511;SDS011;6321;53.798;10.382;2023-05-29T10:47:00;7.93;;;3.13;;
12511;SDS011;6321;53.798;10.382;2023-05-29T10:49:19;8.27;;;3.40;;
12511;SDS011;6321;53.798;10.382;2023-05-29T10:51:45;8.17;;;3.03;;
12511;SDS011;6321;53.798;10.382;2023-05-29T10:54:11;7.07;;;2.90;;
12511;SDS011;6321;53.798;10.382;2023-05-29T10:56:41;6.70;;;3.40;;
12511;SDS011;6321;53.798;10.382;2023-05-29T10:59:10;8.73;;;2.60;;
12511;SDS011;6321;53.798;10.382;2023-05-29T11:01:38;9.17;;;3.27;;
12511;SDS011;6321;53.798;10.382;2023-05-29T11:06:45;6.80;;;2.83;;
12511;SDS011;6321;53.798;10.382;2023-05-29T11:15:08;6.67;;;3.13;;
12511;SDS011;6321;53.798;10.382;2023-05-29T11:17:44;7.67;;;3.70;;
12511;SDS011;6321;53.798;10.382;2023-05-29T11:25:24;6.27;;;3.17;;
12511;SDS011;6321;53.798;10.382;2023-05-29T11:27:50;12.07;;;3.77;;
12511;SDS011;6321;53.798;10.382;2023-05-29T11:30:17;8.47;;;3.40;;
12511;SDS011;6321;53.798;10.382;2023-05-29T11:32:43;10.23;;;3.23;;
12511;SDS011;6321;53.798;10.382;2023-05-29T11:35:11;8.17;;;3.10;;
12511;SDS011;6321;53.798;10.382;2023-05-29T11:37:39;7.50;;;2.70;;
12511;SDS011;6321;53.798;10.382;2023-05-29T11:40:07;6.70;;;3.40;;
12511;SDS011;6321;53.798;10.382;2023-05-29T11:42:34;9.60;;;3.83;;
12511;SDS011;6321;53.798;10.382;2023-05-29T11:45:13;7.70;;;3.27;;
12511;SDS011;6321;53.798;10.382;2023-05-29T11:47:51;7.60;;;2.87;;
12511;SDS011;6321;53.798;10.382;2023-05-29T11:50:18;9.07;;;3.17;;
12511;SDS011;6321;53.798;10.382;2023-05-29T11:52:45;7.80;;;3.23;;
12511;SDS011;6321;53.798;10.382;2023-05-29T11:55:11;8.93;;;3.63;;
12511;SDS011;6321;53.798;10.382;2023-05-29T11:57:37;10.87;;;3.30;;
12511;SDS011;6321;53.798;10.382;2023-05-29T12:00:04;8.47;;;3.40;;
12511;SDS011;6321;53.798;10.382;2023-05-29T12:02:33;5.87;;;3.13;;
12511;SDS011;6321;53.798;10.382;2023-05-29T12:05:02;6.53;;;2.63;;
12511;SDS011;6321;53.798;10.382;2023-05-29T12:07:28;7.23;;;2.93;;
12511;SDS011;6321;53.798;10.382;2023-05-29T12:09:54;6.87;;;3.03;;
12511;SDS011;6321;53.798;10.382;2023-05-29T12:12:23;7.43;;;2.80;;
12511;SDS011;6321;53.798;10.382;2023-05-29T12:14:52;8.97;;;3.53;;
12511;SDS011;6321;53.798;10.382;2023-05-29T12:17:18;10.73;;;2.77;;
12511;SDS011;6321;53.798;10.382;2023-05-29T12:19:44;7.30;;;3.50;;
12511;SDS011;6321;53.798;10.382;2023-05-29T12:22:11;7.10;;;3.70;;
12511;SDS011;6321;53.798;10.382;2023-05-29T12:24:37;9.27;;;6.03;;
12511;SDS011;6321;53.798;10.382;2023-05-29T12:27:05;10.20;;;4.90;;
12511;SDS011;6321;53.798;10.382;2023-05-29T12:29:35;8.30;;;3.53;;
12511;SDS011;6321;53.798;10.382;2023-05-29T12:32:01;7.23;;;3.43;;
12511;SDS011;6321;53.798;10.382;2023-05-29T12:34:27;6.73;;;3.00;;
12511;SDS011;6321;53.798;10.382;2023-05-29T12:37:07;6.60;;;3.40;;
12511;SDS011;6321;53.798;10.382;2023-05-29T12:39:34;6.27;;;2.70;;
12511;SDS011;6321;53.798;10.382;2023-05-29T12:42:01;9.43;;;3.43;;
12511;SDS011;6321;53.798;10.382;2023-05-29T12:44:27;10.13;;;3.47;;
12511;SDS011;6321;53.798;10.382;2023-05-29T12:46:55;8.17;;;3.17;;
12511;SDS011;6321;53.798;10.382;2023-05-29T12:49:22;6.83;;;3.00;;
12511;SDS011;6321;53.798;10.382;2023-05-29T12:51:50;7.20;;;2.77;;
12511;SDS011;6321;53.798;10.382;2023-05-29T12:54:17;6.90;;;3.07;;
12511;SDS011;6321;53.798;10.382;2023-05-29T12:56:43;6.43;;;3.10;;
12511;SDS011;6321;53.798;10.382;2023-05-29T12:59:11;6.43;;;3.43;;
12511;SDS011;6321;53.798;10.382;2023-05-29T13:01:37;7.27;;;3.13;;
12511;SDS011;6321;53.798;10.382;2023-05-29T13:04:04;6.03;;;2.93;;
12511;SDS011;6321;53.798;10.382;2023-05-29T13:06:32;5.00;;;2.90;;
12511;SDS011;6321;53.798;10.382;2023-05-29T13:08:57;9.07;;;3.53;;
12511;SDS011;6321;53.798;10.382;2023-05-29T13:11:23;5.20;;;2.67;;
12511;SDS011;6321;53.798;10.382;2023-05-29T13:13:50;8.13;;;3.50;;
12511;SDS011;6321;53.798;10.382;2023-05-29T13:16:16;5.97;;;3.10;;
12511;SDS011;6321;53.798;10.382;2023-05-29T13:18:42;6.20;;;2.80;;
12511;SDS011;6321;53.798;10.382;2023-05-29T13:21:08;7.60;;;3.17;;
12511;SDS011;6321;53.798;10.382;2023-05-29T13:23:35;6.37;;;3.13;;
12511;SDS011;6321;53.798;10.382;2023-05-29T13:26:01;6.77;;;2.60;;
12511;SDS011;6321;53.798;10.382;2023-05-29T13:28:27;7.83;;;3.10;;
12511;SDS011;6321;53.798;10.382;2023-05-29T13:30:53;3.90;;;2.47;;
12511;SDS011;6321;53.798;10.382;2023-05-29T13:33:19;6.23;;;3.03;;
12511;SDS011;6321;53.798;10.382;2023-05-29T13:35:45;9.00;;;3.30;;
12511;SDS011;6321;53.798;10.382;2023-05-29T13:38:12;6.43;;;3.10;;
12511;SDS011;6321;53.798;10.382;2023-05-29T13:40:37;6.83;;;3.20;;
12511;SDS011;6321;53.798;10.382;2023-05-29T13:43:03;6.43;;;3.43;;
12511;SDS011;6321;53.798;10.382;2023-05-29T13:45:29;5.37;;;3.20;;
12511;SDS011;6321;53.798;10.382;2023-05-29T13:47:55;8.23;;;2.93;;
12511;SDS011;6321;53.798;10.382;2023-05-29T13:50:21;5.37;;;2.90;;
12511;SDS011;6321;53.798;10.382;2023-05-29T13:52:48;4.73;;;3.00;;
12511;SDS011;6321;53.798;10.382;2023-05-29T13:55:14;8.40;;;3.13;;
12511;SDS011;6321;53.798;10.382;2023-05-29T13:57:40;5.60;;;2.70;;
12511;SDS011;6321;53.798;10.382;2023-05-29T14:00:08;5.27;;;2.83;;
12511;SDS011;6321;53.798;10.382;2023-05-29T14:02:34;5.67;;;2.60;;
12511;SDS011;6321;53.798;10.382;2023-05-29T14:05:00;5.53;;;2.80;;
12511;SDS011;6321;53.798;10.382;2023-05-29T14:07:26;6.57;;;3.07;;
12511;SDS011;6321;53.798;10.382;2023-05-29T14:09:52;6.70;;;2.87;;
12511;SDS011;6321;53.798;10.382;2023-05-29T14:12:18;7.23;;;3.13;;
12511;SDS011;6321;53.798;10.382;2023-05-29T14:14:44;5.87;;;2.97;;
12511;SDS011;6321;53.798;10.382;2023-05-29T14:17:10;7.73;;;3.17;;
12511;SDS011;6321;53.798;10.382;2023-05-29T14:19:37;6.07;;;3.27;;
12511;SDS011;6321;53.798;10.382;2023-05-29T14:22:03;6.03;;;2.90;;
12511;SDS011;6321;53.798;10.382;2023-05-29T14:24:29;5.07;;;2.77;;
12511;SDS011;6321;53.798;10.382;2023-05-29T14:26:55;6.60;;;3.10;;
12511;SDS011;6321;53.798;10.382;2023-05-29T14:29:21;4.97;;;2.50;;
12511;SDS011;6321;53.798;10.382;2023-05-29T14:31:47;4.37;;;2.73;;
12511;SDS011;6321;53.798;10.382;2023-05-29T14:34:13;7.90;;;3.40;;
12511;SDS011;6321;53.798;10.382;2023-05-29T14:36:39;5.33;;;2.73;;
12511;SDS011;6321;53.798;10.382;2023-05-29T14:39:09;6.30;;;2.70;;
12511;SDS011;6321;53.798;10.382;2023-05-29T14:41:35;4.13;;;2.57;;
12511;SDS011;6321;53.798;10.382;2023-05-29T14:44:01;5.30;;;2.50;;
12511;SDS011;6321;53.798;10.382;2023-05-29T14:46:27;4.13;;;2.60;;
12511;SDS011;6321;53.798;10.382;2023-05-29T14:48:56;6.10;;;2.87;;
12511;SDS011;6321;53.798;10.382;2023-05-29T14:51:22;5.60;;;2.73;;
12511;SDS011;6321;53.798;10.382;2023-05-29T14:53:49;7.33;;;2.80;;
12511;SDS011;6321;53.798;10.382;2023-05-29T14:56:15;5.50;;;2.87;;
12511;SDS011;6321;53.798;10.382;2023-05-29T14:58:42;5.83;;;2.93;;
12511;SDS011;6321;53.798;10.382;2023-05-29T15:01:08;6.17;;;3.00;;
12511;SDS011;6321;53.798;10.382;2023-05-29T15:03:34;4.53;;;2.70;;
12511;SDS011;6321;53.798;10.382;2023-05-29T15:06:01;5.37;;;2.57;;
12511;SDS011;6321;53.798;10.382;2023-05-29T15:08:27;5.50;;;2.97;;
12511;SDS011;6321;53.798;10.382;2023-05-29T15:10:56;5.47;;;2.80;;